createdAt,value
2022-10-17T00:00:38.028Z,20.02
2022-10-17T00:01:40.248Z,20.02
2022-10-17T00:02:43.346Z,20.02
2022-10-17T00:03:46.042Z,20.02
2022-10-17T00:04:48.714Z,20.02
2022-10-17T00:05:50.687Z,20.02
2022-10-17T00:06:53.416Z,20.02
2022-10-17T00:07:56.054Z,20.01
2022-10-17T00:08:58.959Z,20.01
2022-10-17T00:10:01.356Z,20.02
2022-10-17T00:11:05.963Z,20.02
2022-10-17T00:12:07.994Z,20.02
2022-10-17T00:13:10.209Z,20.02
2022-10-17T00:15:26.516Z,20.12
2022-10-17T00:17:42.741Z,20.11
2022-10-17T00:18:46.093Z,20.01
2022-10-17T00:19:48.344Z,20.01
2022-10-17T00:20:51.256Z,20.01
2022-10-17T00:21:53.685Z,20.02
2022-10-17T00:22:56.827Z,20.01
2022-10-17T00:23:59.590Z,20.03
2022-10-17T00:25:01.810Z,20.01
2022-10-17T00:26:04.768Z,20.02
2022-10-17T00:27:11.891Z,20.01
2022-10-17T00:28:14.994Z,20.02
2022-10-17T00:29:17.036Z,20.02
2022-10-17T00:30:19.555Z,20.01
2022-10-17T00:31:22.264Z,20.01
2022-10-17T00:32:25.414Z,20.02
2022-10-17T00:33:29.947Z,20.02
2022-10-17T00:34:32.160Z,20.01
2022-10-17T00:35:34.314Z,20.01
2022-10-17T00:36:36.544Z,20.00
2022-10-17T00:37:38.862Z,19.99
2022-10-17T00:38:41.753Z,19.98
2022-10-17T00:39:43.837Z,20.00
2022-10-17T00:40:46.539Z,20.00
2022-10-17T00:41:53.377Z,19.99
2022-10-17T00:42:55.374Z,19.99
2022-10-17T00:43:59.831Z,19.98
2022-10-17T00:45:09.047Z,19.98
2022-10-17T00:46:11.901Z,19.98
2022-10-17T00:47:17.744Z,19.98
2022-10-17T00:48:22.586Z,19.98
2022-10-17T00:49:25.746Z,19.99
2022-10-17T00:50:28.022Z,19.98
2022-10-17T00:52:49.155Z,20.07
2022-10-17T00:53:51.149Z,19.97
2022-10-17T00:56:08.224Z,20.06
2022-10-17T00:57:11.141Z,19.96
2022-10-17T00:58:13.177Z,19.95
2022-10-17T00:59:17.744Z,19.96
2022-10-17T01:00:21.276Z,19.98
2022-10-17T01:01:23.810Z,19.98
2022-10-17T01:02:26.167Z,19.98
2022-10-17T01:03:28.503Z,19.98
2022-10-17T01:04:30.993Z,19.98
2022-10-17T01:05:33.041Z,19.97
2022-10-17T01:06:35.116Z,19.98
2022-10-17T01:07:38.154Z,19.98
2022-10-17T01:08:40.959Z,19.98
2022-10-17T01:09:43.254Z,19.98
2022-10-17T01:10:49.346Z,19.98
2022-10-17T01:11:58.067Z,19.98
2022-10-17T01:13:04.179Z,19.99
2022-10-17T01:14:19.192Z,19.98
2022-10-17T01:18:16.045Z,20.07
2022-10-17T01:19:37.058Z,19.94
2022-10-17T01:21:01.742Z,19.94
2022-10-17T01:22:24.723Z,19.94
2022-10-17T01:23:36.759Z,19.92
2022-10-17T01:24:51.611Z,19.92
2022-10-17T01:26:03.905Z,19.90
2022-10-17T01:27:46.735Z,19.89
2022-10-17T01:29:26.403Z,19.89
2022-10-17T01:30:50.525Z,19.86
2022-10-17T01:32:17.184Z,19.85
2022-10-17T01:33:23.118Z,19.82
2022-10-17T01:34:38.830Z,19.80
2022-10-17T01:37:06.631Z,19.86
2022-10-17T01:39:37.005Z,19.86
2022-10-17T01:40:46.600Z,19.76
2022-10-17T01:42:08.748Z,19.76
2022-10-17T01:44:36.372Z,19.87
2022-10-17T01:47:01.752Z,19.88
2022-10-17T01:49:21.419Z,19.89
2022-10-17T01:50:27.115Z,19.78
2022-10-17T01:51:44.523Z,19.80
2022-10-17T01:52:54.806Z,19.80
2022-10-17T01:54:04.271Z,19.82
2022-10-17T01:55:12.014Z,19.82
2022-10-17T01:56:14.158Z,19.83
2022-10-17T01:57:23.650Z,19.83
2022-10-17T01:58:41.388Z,19.84
2022-10-17T01:59:44.763Z,19.83
2022-10-17T02:00:47.292Z,19.83
2022-10-17T02:01:51.641Z,19.84
2022-10-17T02:02:58.634Z,19.83
2022-10-17T02:04:00.861Z,19.83
2022-10-17T02:05:04.283Z,19.84
2022-10-17T02:06:06.884Z,19.84
2022-10-17T02:07:11.709Z,19.85
2022-10-17T02:08:14.436Z,19.86
2022-10-17T02:09:18.229Z,19.85
2022-10-17T02:10:36.033Z,19.86
2022-10-17T02:11:38.283Z,19.86
2022-10-17T02:12:53.918Z,19.86
2022-10-17T02:14:06.310Z,19.86
2022-10-17T02:15:46.000Z,19.87
2022-10-17T02:17:04.090Z,19.86
2022-10-17T02:18:31.890Z,19.86
2022-10-17T02:19:46.666Z,19.86
2022-10-17T02:20:58.372Z,19.84
2022-10-17T02:23:43.475Z,19.92
2022-10-17T02:24:55.533Z,19.81
2022-10-17T02:26:10.865Z,19.80
2022-10-17T02:27:35.272Z,19.79
2022-10-17T02:28:50.349Z,19.78
2022-10-17T02:30:13.036Z,19.78
2022-10-17T02:31:24.122Z,19.77
2022-10-17T02:32:31.033Z,19.76
2022-10-17T02:33:45.515Z,19.76
2022-10-17T02:34:49.782Z,19.76
2022-10-17T02:35:53.872Z,19.75
2022-10-17T02:36:58.674Z,19.76
2022-10-17T02:38:00.907Z,19.76
2022-10-17T02:39:03.179Z,19.76
2022-10-17T02:40:06.040Z,19.76
2022-10-17T02:41:10.575Z,19.76
2022-10-17T02:42:12.849Z,19.77
2022-10-17T02:43:15.120Z,19.77
2022-10-17T02:44:17.303Z,19.78
2022-10-17T02:45:21.233Z,19.80
2022-10-17T02:46:23.606Z,19.80
2022-10-17T02:47:34.621Z,19.80
2022-10-17T02:48:40.755Z,19.82
2022-10-17T02:49:45.142Z,19.83
2022-10-17T02:51:25.480Z,19.83
2022-10-17T02:52:43.336Z,19.83
2022-10-17T02:53:58.149Z,19.84
2022-10-17T02:55:19.363Z,19.82
2022-10-17T02:56:22.786Z,19.82
2022-10-17T02:57:34.657Z,19.81
2022-10-17T02:58:36.785Z,19.80
2022-10-17T02:59:39.006Z,19.79
2022-10-17T03:03:24.966Z,19.89
2022-10-17T03:04:28.769Z,19.81
2022-10-17T03:05:31.225Z,19.80
2022-10-17T03:06:35.905Z,19.81
2022-10-17T03:07:38.570Z,19.81
2022-10-17T03:08:40.677Z,19.81
2022-10-17T03:09:42.858Z,19.81
2022-10-17T03:10:45.280Z,19.82
2022-10-17T03:11:47.724Z,19.83
2022-10-17T03:12:50.120Z,19.85
2022-10-17T03:13:52.944Z,19.86
2022-10-17T03:14:55.139Z,19.86
2022-10-17T03:15:57.374Z,19.87
2022-10-17T03:17:00.147Z,19.86
2022-10-17T03:18:03.387Z,19.88
2022-10-17T03:19:05.583Z,19.89
2022-10-17T03:20:09.381Z,19.89
2022-10-17T03:21:12.501Z,19.90
2022-10-17T03:22:14.700Z,19.89
2022-10-17T03:23:17.957Z,19.90
2022-10-17T03:24:20.705Z,19.90
2022-10-17T03:25:23.009Z,19.91
2022-10-17T03:26:25.403Z,19.91
2022-10-17T03:27:27.762Z,19.92
2022-10-17T03:28:30.258Z,19.92
2022-10-17T03:29:32.426Z,19.92
2022-10-17T03:30:35.357Z,19.93
2022-10-17T03:31:37.491Z,19.88
2022-10-17T03:32:40.938Z,19.88
2022-10-17T03:33:44.448Z,19.95
2022-10-17T03:34:46.672Z,19.96
2022-10-17T03:36:53.034Z,19.95
2022-10-17T03:37:55.229Z,19.98
2022-10-17T03:38:57.534Z,19.99
2022-10-17T03:39:59.475Z,19.97
2022-10-17T03:41:02.502Z,19.98
2022-10-17T03:42:04.658Z,19.98
2022-10-17T03:43:07.160Z,19.99
2022-10-17T03:44:09.256Z,19.98
2022-10-17T03:45:11.645Z,19.98
2022-10-17T03:46:14.292Z,19.98
2022-10-17T03:47:16.415Z,19.99
2022-10-17T03:48:20.607Z,19.99
2022-10-17T03:49:22.784Z,19.98
2022-10-17T03:50:25.108Z,19.97
2022-10-17T03:51:28.072Z,19.98
2022-10-17T03:52:33.434Z,19.98
2022-10-17T03:53:36.668Z,19.99
2022-10-17T03:54:39.271Z,19.97
2022-10-17T03:55:42.091Z,19.97
2022-10-17T03:56:44.817Z,19.98
2022-10-17T03:57:49.433Z,19.98
2022-10-17T03:58:52.425Z,19.98
2022-10-17T03:59:54.615Z,19.98
2022-10-17T04:00:56.943Z,19.98
2022-10-17T04:01:59.278Z,19.99
2022-10-17T04:03:01.837Z,19.97
2022-10-17T04:04:05.103Z,19.99
2022-10-17T04:05:09.035Z,19.99
2022-10-17T04:06:12.153Z,20.00
2022-10-17T04:07:14.684Z,19.99
2022-10-17T04:08:18.850Z,19.99
2022-10-17T04:09:37.846Z,19.99
2022-10-17T04:10:44.872Z,19.99
2022-10-17T04:11:47.075Z,19.99
2022-10-17T04:12:49.840Z,19.99
2022-10-17T04:13:54.051Z,20.00
2022-10-17T04:14:56.750Z,20.00
2022-10-17T04:16:04.287Z,20.00
2022-10-17T04:17:07.619Z,20.00
2022-10-17T04:18:10.059Z,19.99
2022-10-17T04:19:13.898Z,19.99
2022-10-17T04:20:19.009Z,19.99
2022-10-17T04:21:22.189Z,19.99
2022-10-17T04:22:25.604Z,20.00
2022-10-17T04:23:28.650Z,19.99
2022-10-17T04:24:34.261Z,20.00
2022-10-17T04:25:41.072Z,20.00
2022-10-17T04:26:43.887Z,19.99
2022-10-17T04:27:46.740Z,20.00
2022-10-17T04:28:49.522Z,20.00
2022-10-17T04:29:53.440Z,20.01
2022-10-17T04:30:59.090Z,20.01
2022-10-17T04:32:03.462Z,20.01
2022-10-17T04:33:07.520Z,20.01
2022-10-17T04:34:09.561Z,20.01
2022-10-17T04:35:11.674Z,20.01
2022-10-17T04:36:17.155Z,20.02
2022-10-17T04:37:19.535Z,20.00
2022-10-17T04:38:27.650Z,20.00
2022-10-17T04:39:27.900Z,19.99
2022-10-17T04:40:31.834Z,19.98
2022-10-17T04:41:34.303Z,19.95
2022-10-17T04:42:37.954Z,19.93
2022-10-17T04:43:40.429Z,19.90
2022-10-17T04:44:42.643Z,19.87
2022-10-17T04:45:45.615Z,19.83
2022-10-17T04:46:48.250Z,19.81
2022-10-17T04:47:50.264Z,19.77
2022-10-17T04:48:53.969Z,19.74
2022-10-17T04:49:57.463Z,19.72
2022-10-17T04:51:01.425Z,19.72
2022-10-17T04:52:08.205Z,19.68
2022-10-17T04:53:18.132Z,19.67
2022-10-17T04:54:20.250Z,19.63
2022-10-17T04:55:25.303Z,19.60
2022-10-17T04:56:27.597Z,19.58
2022-10-17T04:57:30.086Z,19.59
2022-10-17T04:58:34.238Z,19.58
2022-10-17T04:59:37.681Z,19.58
2022-10-17T05:00:42.231Z,19.57
2022-10-17T05:01:49.103Z,19.57
2022-10-17T05:02:53.159Z,19.57
2022-10-17T05:03:55.911Z,19.57
2022-10-17T05:04:58.031Z,19.58
2022-10-17T05:07:17.170Z,19.69
2022-10-17T05:08:24.428Z,19.58
2022-10-17T05:09:28.020Z,19.57
2022-10-17T05:10:33.007Z,19.56
2022-10-17T05:11:35.211Z,19.54
2022-10-17T05:12:37.585Z,19.53
2022-10-17T05:13:40.019Z,19.50
2022-10-17T05:14:43.150Z,19.51
2022-10-17T05:15:45.251Z,19.50
2022-10-17T05:16:47.658Z,19.49
2022-10-17T05:17:53.675Z,19.48
2022-10-17T05:18:57.145Z,19.48
2022-10-17T05:20:01.438Z,19.45
2022-10-17T05:21:08.867Z,19.44
2022-10-17T05:22:11.002Z,19.43
2022-10-17T05:23:17.269Z,19.40
2022-10-17T05:24:19.697Z,19.37
2022-10-17T05:25:23.768Z,19.35
2022-10-17T05:26:26.904Z,19.35
2022-10-17T05:27:29.097Z,19.33
2022-10-17T05:28:34.068Z,19.32
2022-10-17T05:29:36.589Z,19.29
2022-10-17T05:30:40.845Z,19.26
2022-10-17T05:31:44.153Z,19.23
2022-10-17T05:32:47.594Z,19.21
2022-10-17T05:33:50.586Z,19.18
2022-10-17T05:34:53.177Z,19.17
2022-10-17T05:35:55.897Z,19.17
2022-10-17T05:36:58.142Z,19.16
2022-10-17T05:38:03.211Z,19.17
2022-10-17T05:39:05.823Z,19.16
2022-10-17T05:40:11.044Z,19.14
2022-10-17T05:41:13.295Z,19.12
2022-10-17T05:42:15.989Z,19.10
2022-10-17T05:43:18.073Z,19.09
2022-10-17T05:44:20.809Z,19.07
2022-10-17T05:45:24.995Z,19.06
2022-10-17T05:46:27.223Z,19.05
2022-10-17T05:47:31.427Z,19.02
2022-10-17T05:48:34.337Z,19.02
2022-10-17T05:49:48.636Z,19.01
2022-10-17T05:50:41.960Z,18.99
2022-10-17T05:51:45.988Z,18.98
2022-10-17T05:52:50.089Z,18.95
2022-10-17T05:53:54.126Z,18.91
2022-10-17T05:54:59.156Z,18.85
2022-10-17T05:56:04.450Z,18.80
2022-10-17T05:57:07.124Z,18.78
2022-10-17T05:58:17.726Z,18.75
2022-10-17T05:59:18.266Z,18.70
2022-10-17T06:00:28.538Z,18.67
2022-10-17T06:01:32.201Z,18.61
2022-10-17T06:02:36.932Z,18.59
2022-10-17T06:03:41.496Z,18.52
2022-10-17T06:04:45.176Z,18.53
2022-10-17T06:05:47.981Z,18.52
2022-10-17T06:06:51.055Z,18.51
2022-10-17T06:07:56.980Z,18.51
2022-10-17T06:08:59.724Z,18.52
2022-10-17T06:10:05.816Z,18.49
2022-10-17T06:11:10.141Z,18.44
2022-10-17T06:12:13.305Z,18.41
2022-10-17T06:13:17.221Z,18.39
2022-10-17T06:14:21.213Z,18.37
2022-10-17T06:15:25.786Z,18.35
2022-10-17T06:16:29.881Z,18.34
2022-10-17T06:17:32.234Z,18.33
2022-10-17T06:18:35.769Z,18.34
2022-10-17T06:19:37.992Z,18.34
2022-10-17T06:20:43.900Z,18.38
2022-10-17T06:21:44.252Z,18.39
2022-10-17T06:22:52.381Z,18.42
2022-10-17T06:23:56.792Z,18.45
2022-10-17T06:25:09.831Z,18.46
2022-10-17T06:26:15.350Z,18.47
2022-10-17T06:27:18.612Z,18.46
2022-10-17T06:28:21.885Z,18.45
2022-10-17T06:29:24.048Z,18.46
2022-10-17T06:30:28.972Z,18.44
2022-10-17T06:31:31.252Z,18.46
2022-10-17T06:32:33.450Z,18.45
2022-10-17T06:33:36.539Z,18.46
2022-10-17T06:34:39.549Z,18.50
2022-10-17T06:35:41.778Z,18.54
2022-10-17T06:36:44.002Z,18.57
2022-10-17T06:37:47.552Z,18.59
2022-10-17T06:38:50.256Z,18.58
2022-10-17T06:39:55.357Z,18.58
2022-10-17T06:41:08.396Z,18.62
2022-10-17T06:42:11.307Z,18.65
2022-10-17T06:43:27.846Z,18.49
2022-10-17T06:44:31.762Z,18.21
2022-10-17T06:45:39.707Z,17.99
2022-10-17T06:46:52.762Z,17.58
2022-10-17T06:47:55.912Z,17.17
2022-10-17T06:49:00.091Z,16.95
2022-10-17T06:50:08.701Z,16.71
2022-10-17T06:51:29.809Z,16.45
2022-10-17T06:52:43.447Z,16.26
2022-10-17T06:53:50.258Z,16.04
2022-10-17T06:55:07.318Z,16.07
2022-10-17T06:56:12.686Z,16.00
2022-10-17T06:57:27.874Z,15.84
2022-10-17T06:58:34.334Z,15.74
2022-10-17T06:59:39.191Z,15.76
2022-10-17T07:02:20.659Z,15.63
2022-10-17T07:03:25.072Z,15.44
2022-10-17T07:04:30.293Z,15.41
2022-10-17T07:05:35.922Z,15.23
2022-10-17T07:06:39.878Z,15.11
2022-10-17T07:07:46.322Z,15.00
2022-10-17T07:08:50.906Z,14.89
2022-10-17T07:09:55.398Z,14.80
2022-10-17T07:10:58.393Z,14.81
2022-10-17T07:12:02.176Z,14.83
2022-10-17T07:13:04.169Z,14.84
2022-10-17T07:14:08.808Z,14.91
2022-10-17T07:15:11.301Z,14.99
2022-10-17T07:16:14.752Z,15.08
2022-10-17T07:18:31.374Z,15.58
2022-10-17T07:19:34.717Z,15.67
2022-10-17T07:20:39.146Z,15.86
2022-10-17T07:21:41.529Z,16.15
2022-10-17T07:22:49.401Z,16.15
2022-10-17T07:23:54.375Z,16.36
2022-10-17T07:24:58.940Z,16.51
2022-10-17T07:26:13.730Z,16.65
2022-10-17T07:27:16.517Z,16.80
2022-10-17T07:28:18.779Z,16.93
2022-10-17T07:29:22.045Z,17.03
2022-10-17T07:30:26.245Z,17.14
2022-10-17T07:31:30.224Z,17.25
2022-10-17T07:32:33.689Z,17.35
2022-10-17T07:33:37.338Z,17.44
2022-10-17T07:34:40.690Z,17.52
2022-10-17T07:35:44.027Z,17.59
2022-10-17T07:36:46.605Z,17.68
2022-10-17T07:37:50.110Z,17.75
2022-10-17T07:38:56.330Z,17.81
2022-10-17T07:40:00.024Z,17.87
2022-10-17T07:41:04.000Z,17.94
2022-10-17T07:42:08.129Z,17.99
2022-10-17T07:43:11.529Z,18.04
2022-10-17T07:44:13.773Z,18.08
2022-10-17T07:45:18.613Z,18.14
2022-10-17T07:46:21.865Z,18.18
2022-10-17T07:47:25.097Z,18.22
2022-10-17T07:48:27.584Z,18.26
2022-10-17T07:49:30.010Z,18.29
2022-10-17T07:50:32.195Z,18.33
2022-10-17T07:51:34.908Z,18.36
2022-10-17T07:52:37.231Z,18.40
2022-10-17T07:53:42.713Z,18.43
2022-10-17T07:54:44.584Z,18.47
2022-10-17T07:55:46.819Z,18.49
2022-10-17T07:56:49.894Z,18.53
2022-10-17T07:57:52.138Z,18.55
2022-10-17T07:58:54.708Z,18.56
2022-10-17T07:59:57.157Z,18.59
2022-10-17T08:01:09.473Z,18.62
2022-10-17T08:02:23.538Z,18.63
2022-10-17T08:03:26.022Z,18.66
2022-10-17T08:04:28.816Z,18.68
2022-10-17T08:05:31.410Z,18.70
2022-10-17T08:06:34.313Z,18.72
2022-10-17T08:07:38.448Z,18.73
2022-10-17T08:08:41.716Z,18.75
2022-10-17T08:09:43.919Z,18.76
2022-10-17T08:10:47.074Z,18.78
2022-10-17T08:11:49.689Z,18.79
2022-10-17T08:12:51.688Z,18.81
2022-10-17T08:13:53.757Z,18.83
2022-10-17T08:14:55.854Z,18.84
2022-10-17T08:16:02.670Z,18.86
2022-10-17T08:17:07.524Z,18.88
2022-10-17T08:18:11.591Z,18.89
2022-10-17T08:19:14.578Z,18.91
2022-10-17T08:20:16.981Z,18.91
2022-10-17T08:21:19.062Z,18.91
2022-10-17T08:22:21.170Z,18.93
2022-10-17T08:23:23.287Z,18.94
2022-10-17T08:24:26.450Z,18.95
2022-10-17T08:25:28.456Z,18.92
2022-10-17T08:26:30.969Z,18.92
2022-10-17T08:27:33.576Z,18.98
2022-10-17T08:28:37.559Z,18.99
2022-10-17T08:29:40.318Z,19.00
2022-10-17T08:30:43.112Z,19.00
2022-10-17T08:31:47.787Z,19.02
2022-10-17T08:32:51.112Z,19.04
2022-10-17T08:33:53.236Z,19.04
2022-10-17T08:34:56.213Z,19.04
2022-10-17T08:35:59.836Z,19.05
2022-10-17T08:37:02.062Z,19.07
2022-10-17T08:38:04.512Z,19.07
2022-10-17T08:39:06.502Z,19.08
2022-10-17T08:41:50.371Z,19.19
2022-10-17T08:43:35.270Z,19.09
2022-10-17T08:44:53.665Z,19.09
2022-10-17T08:45:58.877Z,19.08
2022-10-17T08:47:03.347Z,19.07
2022-10-17T08:48:07.755Z,19.06
2022-10-17T08:49:16.546Z,19.05
2022-10-17T08:50:36.816Z,19.03
2022-10-17T08:51:42.932Z,19.03
2022-10-17T08:53:04.215Z,19.02
2022-10-17T08:55:42.904Z,19.09
2022-10-17T08:56:49.620Z,18.99
2022-10-17T08:57:50.595Z,18.98
2022-10-17T08:58:52.796Z,18.98
2022-10-17T09:00:04.364Z,18.96
2022-10-17T09:01:33.620Z,18.95
2022-10-17T09:04:25.906Z,19.05
2022-10-17T09:05:50.149Z,18.93
2022-10-17T09:07:13.938Z,18.91
2022-10-17T09:08:58.442Z,18.90
2022-10-17T09:11:35.779Z,18.97
2022-10-17T09:12:51.399Z,18.86
2022-10-17T09:15:50.052Z,18.98
2022-10-17T09:16:57.041Z,18.86
2022-10-17T09:18:22.239Z,18.86
2022-10-17T09:19:34.831Z,18.85
2022-10-17T09:20:43.638Z,18.84
2022-10-17T09:21:55.637Z,18.84
2022-10-17T09:23:01.339Z,18.83
2022-10-17T09:24:09.883Z,18.84
2022-10-17T09:25:13.347Z,18.84
2022-10-17T09:26:15.979Z,18.85
2022-10-17T09:27:37.249Z,18.85
2022-10-17T09:28:40.406Z,18.84
2022-10-17T09:29:44.022Z,18.86
2022-10-17T09:30:49.357Z,18.85
2022-10-17T09:33:34.780Z,18.96
2022-10-17T09:34:28.428Z,18.85
2022-10-17T09:35:30.625Z,18.85
2022-10-17T09:36:34.815Z,18.85
2022-10-17T09:37:38.741Z,18.84
2022-10-17T09:38:42.815Z,18.85
2022-10-17T09:39:46.448Z,18.86
2022-10-17T09:40:57.443Z,18.86
2022-10-17T09:42:00.732Z,18.88
2022-10-17T09:43:05.673Z,18.87
2022-10-17T09:44:34.643Z,18.89
2022-10-17T09:45:40.697Z,18.90
2022-10-17T09:48:25.684Z,19.05
2022-10-17T09:50:57.808Z,19.05
2022-10-17T09:51:52.053Z,18.96
2022-10-17T09:52:55.242Z,18.97
2022-10-17T09:54:01.030Z,18.98
2022-10-17T09:55:22.611Z,19.00
2022-10-17T09:56:25.429Z,19.01
2022-10-17T09:57:27.745Z,19.03
2022-10-17T09:58:48.280Z,19.04
2022-10-17T10:00:04.248Z,19.04
2022-10-17T10:02:39.807Z,19.16
2022-10-17T10:03:43.631Z,19.05
2022-10-17T10:05:10.309Z,19.06
2022-10-17T10:06:04.290Z,19.07
2022-10-17T10:07:09.407Z,19.07
2022-10-17T10:09:27.985Z,19.20
2022-10-17T10:10:30.901Z,19.12
2022-10-17T10:11:51.185Z,19.10
2022-10-17T10:14:36.691Z,19.27
2022-10-17T10:16:52.908Z,19.30
2022-10-17T10:17:54.941Z,19.20
2022-10-17T10:18:56.907Z,19.21
2022-10-17T10:19:59.105Z,19.23
2022-10-17T10:21:14.029Z,19.23
2022-10-17T10:22:21.535Z,19.24
2022-10-17T10:23:25.234Z,19.28
2022-10-17T10:24:31.017Z,19.30
2022-10-17T10:25:33.930Z,19.30
2022-10-17T10:27:57.251Z,19.45
2022-10-17T10:29:03.022Z,19.35
2022-10-17T10:30:06.704Z,19.36
2022-10-17T10:31:08.775Z,19.37
2022-10-17T10:32:28.023Z,19.38
2022-10-17T10:33:31.331Z,19.39
2022-10-17T10:34:34.032Z,19.40
2022-10-17T10:35:37.051Z,19.40
2022-10-17T10:36:48.419Z,19.37
2022-10-17T10:37:53.722Z,19.34
2022-10-17T10:38:56.161Z,19.30
2022-10-17T10:40:01.085Z,19.20
2022-10-17T10:41:05.680Z,19.01
2022-10-17T10:43:35.102Z,18.75
2022-10-17T10:44:38.479Z,18.53
2022-10-17T10:45:47.874Z,18.39
2022-10-17T10:46:46.373Z,18.32
2022-10-17T10:47:59.796Z,18.24
2022-10-17T10:49:01.974Z,18.18
2022-10-17T10:50:19.643Z,18.04
2022-10-17T10:52:46.099Z,17.95
2022-10-17T10:54:12.192Z,17.79
2022-10-17T10:56:58.721Z,17.88
2022-10-17T10:58:21.008Z,17.79
2022-10-17T10:59:32.591Z,17.82
2022-10-17T11:00:35.418Z,17.88
2022-10-17T11:03:18.273Z,18.10
2022-10-17T11:04:27.737Z,17.94
2022-10-17T11:05:57.931Z,17.90
2022-10-17T11:07:10.125Z,17.89
2022-10-17T11:08:25.121Z,17.80
2022-10-17T11:09:47.453Z,17.73
2022-10-17T11:11:14.820Z,17.68
2022-10-17T11:12:20.410Z,17.66
2022-10-17T11:13:29.069Z,17.62
2022-10-17T11:14:51.012Z,17.66
2022-10-17T11:15:57.100Z,17.73
2022-10-17T11:17:16.174Z,17.83
2022-10-17T11:18:27.778Z,17.89
2022-10-17T11:19:37.203Z,18.00
2022-10-17T11:22:29.525Z,18.27
2022-10-17T11:23:38.639Z,18.23
2022-10-17T11:24:44.373Z,18.28
2022-10-17T11:25:48.773Z,18.33
2022-10-17T11:27:06.292Z,18.38
2022-10-17T11:28:14.775Z,18.43
2022-10-17T11:29:16.814Z,18.48
2022-10-17T11:30:20.029Z,18.52
2022-10-17T11:31:25.352Z,18.57
2022-10-17T11:32:56.821Z,18.62
2022-10-17T11:35:43.113Z,18.83
2022-10-17T11:36:47.533Z,18.75
2022-10-17T11:39:09.680Z,18.90
2022-10-17T11:40:21.905Z,18.83
2022-10-17T11:41:32.239Z,18.85
2022-10-17T11:44:16.599Z,19.02
2022-10-17T11:45:19.672Z,18.92
2022-10-17T11:46:26.246Z,18.94
2022-10-17T11:47:40.458Z,18.96
2022-10-17T11:49:20.070Z,18.99
2022-10-17T11:52:59.101Z,19.14
2022-10-17T11:54:20.387Z,19.04
2022-10-17T11:55:28.802Z,19.05
2022-10-17T11:56:44.244Z,19.06
2022-10-17T11:59:32.065Z,19.19
2022-10-17T12:00:48.794Z,19.09
2022-10-17T12:02:10.917Z,19.10
2022-10-17T12:03:37.656Z,19.12
2022-10-17T12:04:49.667Z,19.13
2022-10-17T12:06:22.934Z,19.13
2022-10-17T12:07:48.512Z,19.14
2022-10-17T12:09:04.345Z,19.15
2022-10-17T12:10:44.221Z,19.15
2022-10-17T12:11:54.718Z,19.16
2022-10-17T12:12:56.768Z,19.18
2022-10-17T12:14:01.595Z,19.17
2022-10-17T12:15:22.657Z,19.18
2022-10-17T12:16:31.588Z,19.19
2022-10-17T12:17:35.510Z,19.20
2022-10-17T12:18:38.704Z,19.22
2022-10-17T12:19:41.046Z,19.23
2022-10-17T12:20:43.172Z,19.24
2022-10-17T12:22:21.374Z,19.27
2022-10-17T12:24:44.291Z,19.41
2022-10-17T12:25:56.938Z,19.33
2022-10-17T12:27:19.252Z,19.34
2022-10-17T12:28:39.877Z,19.34
2022-10-17T12:29:42.126Z,19.36
2022-10-17T12:32:14.301Z,19.49
2022-10-17T12:33:21.198Z,19.37
2022-10-17T12:34:23.737Z,19.36
2022-10-17T12:35:26.745Z,19.36
2022-10-17T12:36:34.199Z,19.36
2022-10-17T12:39:06.002Z,19.47
2022-10-17T12:40:38.318Z,19.37
2022-10-17T12:41:45.660Z,19.36
2022-10-17T12:42:50.463Z,19.37
2022-10-17T12:43:54.599Z,19.36
2022-10-17T12:45:01.409Z,19.36
2022-10-17T12:46:07.702Z,19.35
2022-10-17T12:47:15.224Z,19.35
2022-10-17T12:49:55.811Z,19.47
2022-10-17T12:51:34.730Z,19.36
2022-10-17T12:52:28.854Z,19.35
2022-10-17T12:55:14.535Z,19.47
2022-10-17T12:56:04.132Z,19.35
2022-10-17T12:57:37.695Z,19.24
2022-10-17T12:58:49.104Z,19.24
2022-10-17T12:59:55.605Z,19.34
2022-10-17T13:01:22.711Z,19.35
2022-10-17T13:02:03.254Z,19.33
2022-10-17T13:03:12.558Z,19.34
2022-10-17T13:04:14.929Z,19.34
2022-10-17T13:05:31.213Z,19.35
2022-10-17T13:06:36.047Z,19.36
2022-10-17T13:07:40.495Z,19.36
2022-10-17T13:08:43.948Z,19.36
2022-10-17T13:09:46.554Z,19.35
2022-10-17T13:10:51.732Z,19.35
2022-10-17T13:11:53.637Z,19.35
2022-10-17T13:14:12.492Z,19.48
2022-10-17T13:15:17.442Z,19.37
2022-10-17T13:16:33.236Z,19.38
2022-10-17T13:17:35.825Z,19.38
2022-10-17T13:18:37.981Z,19.41
2022-10-17T13:19:46.306Z,19.42
2022-10-17T13:21:03.223Z,19.44
2022-10-17T13:23:36.477Z,19.59
2022-10-17T13:24:40.076Z,19.50
2022-10-17T13:25:42.685Z,19.51
2022-10-17T13:26:45.372Z,19.52
2022-10-17T13:27:48.019Z,19.54
2022-10-17T13:29:11.082Z,19.56
2022-10-17T13:30:31.112Z,19.58
2022-10-17T13:32:46.585Z,19.73
2022-10-17T13:33:49.653Z,19.64
2022-10-17T13:35:08.834Z,19.63
2022-10-17T13:36:14.748Z,19.65
2022-10-17T13:37:16.883Z,19.67
2022-10-17T13:40:50.172Z,19.80
2022-10-17T13:41:48.157Z,19.70
2022-10-17T13:42:50.618Z,19.72
2022-10-17T13:43:53.262Z,19.73
2022-10-17T13:44:55.347Z,19.74
2022-10-17T13:46:13.660Z,19.75
2022-10-17T13:47:06.671Z,19.76
2022-10-17T13:49:31.203Z,19.88
2022-10-17T13:50:44.825Z,19.78
2022-10-17T13:53:17.204Z,19.90
2022-10-17T13:54:39.821Z,19.80
2022-10-17T13:57:19.859Z,19.93
2022-10-17T13:58:21.927Z,19.84
2022-10-17T13:59:27.399Z,19.83
2022-10-17T14:00:30.306Z,19.83
2022-10-17T14:01:32.943Z,19.82
2022-10-17T14:02:35.109Z,19.83
2022-10-17T14:03:48.255Z,19.84
2022-10-17T14:05:15.296Z,19.84
2022-10-17T14:06:04.725Z,19.84
2022-10-17T14:08:28.428Z,19.92
2022-10-17T14:09:30.475Z,19.80
2022-10-17T14:10:35.121Z,19.77
2022-10-17T14:11:40.356Z,19.75
2022-10-17T14:12:43.229Z,19.73
2022-10-17T14:13:47.928Z,19.72
2022-10-17T14:15:09.853Z,19.72
2022-10-17T14:15:59.796Z,19.72
2022-10-17T14:17:02.920Z,19.71
2022-10-17T14:18:08.159Z,19.71
2022-10-17T14:19:19.850Z,19.72
2022-10-17T14:21:40.962Z,19.72
2022-10-17T14:22:33.698Z,19.70
2022-10-17T14:23:37.949Z,19.71
2022-10-17T14:24:40.022Z,19.71
2022-10-17T14:25:43.401Z,19.72
2022-10-17T14:28:13.482Z,19.86
2022-10-17T14:29:28.646Z,19.75
2022-10-17T14:30:55.064Z,19.76
2022-10-17T14:31:37.339Z,19.77
2022-10-17T14:32:39.596Z,19.78
2022-10-17T14:33:49.769Z,19.78
2022-10-17T14:35:00.719Z,19.79
2022-10-17T14:36:00.560Z,19.80
2022-10-17T14:38:21.785Z,19.93
2022-10-17T14:39:26.915Z,19.85
2022-10-17T14:40:30.468Z,19.85
2022-10-17T14:41:49.333Z,19.86
2022-10-17T14:42:40.180Z,19.87
2022-10-17T14:43:42.367Z,19.76
2022-10-17T14:44:48.644Z,19.89
2022-10-17T14:45:50.917Z,19.90
2022-10-17T14:48:11.292Z,20.03
2022-10-17T14:50:29.360Z,20.04
2022-10-17T14:51:44.634Z,19.94
2022-10-17T14:52:46.421Z,19.95
2022-10-17T14:54:05.583Z,19.96
2022-10-17T14:55:26.036Z,19.97
2022-10-17T14:56:37.976Z,19.95
2022-10-17T14:57:43.469Z,19.98
2022-10-17T14:58:46.341Z,19.98
2022-10-17T14:59:54.835Z,19.98
2022-10-17T15:02:08.768Z,20.08
2022-10-17T15:03:11.389Z,19.99
2022-10-17T15:04:14.031Z,19.98
2022-10-17T15:05:16.288Z,19.98
2022-10-17T15:06:21.044Z,19.99
2022-10-17T15:07:24.510Z,19.99
2022-10-17T15:08:27.146Z,20.01
2022-10-17T15:09:29.889Z,20.01
2022-10-17T15:11:46.701Z,20.13
2022-10-17T15:12:57.456Z,20.04
2022-10-17T15:13:54.157Z,20.04
2022-10-17T15:14:57.778Z,20.04
2022-10-17T15:15:59.850Z,20.05
2022-10-17T15:17:04.513Z,20.04
2022-10-17T15:18:06.907Z,20.04
2022-10-17T15:19:11.673Z,20.03
2022-10-17T15:20:16.486Z,20.02
2022-10-17T15:22:33.060Z,20.12
2022-10-17T15:23:37.311Z,20.03
2022-10-17T15:24:40.214Z,20.02
2022-10-17T15:25:47.394Z,20.01
2022-10-17T15:26:49.830Z,20.01
2022-10-17T15:27:56.295Z,20.01
2022-10-17T15:29:01.379Z,20.01
2022-10-17T15:30:06.301Z,20.01
2022-10-17T15:32:22.496Z,20.11
2022-10-17T15:33:25.117Z,20.02
2022-10-17T15:34:27.111Z,20.00
2022-10-17T15:35:30.438Z,20.00
2022-10-17T15:36:35.886Z,19.99
2022-10-17T15:37:38.175Z,20.00
2022-10-17T15:38:42.117Z,20.01
2022-10-17T15:39:44.776Z,20.01
2022-10-17T15:40:50.130Z,20.02
2022-10-17T15:41:52.827Z,20.02
2022-10-17T15:42:55.118Z,20.01
2022-10-17T15:43:58.530Z,20.01
2022-10-17T15:45:01.736Z,20.00
2022-10-17T15:46:05.718Z,20.01
2022-10-17T15:47:11.172Z,20.00